Time;durP1;ratioP1;P1;durP2;ratioP2;P2;SDS_P1;SDS_P2;PMS_P1;PMS_P2;Temp;Humidity;BMP_temperature;BMP_pressure;BME280_temperature;BME280_humidity;BME280_pressure;Samples;Min_cycle;Max_cycle;Signal;HPM_P1;HPM_P2
2023/10/12 00:01:58;;;;;;;96.85;5.50;;;;;;;23.03;56.72;99005.91;7295848;19;131794;-38
2023/10/12 00:04:50;;;;;;;131.68;7.20;;;;;;;23.03;57.34;99005.91;7292141;19;130579;-37
2023/10/12 00:07:15;;;;;;;118.72;7.00;;;;;;;23.04;56.71;99010.16;7296462;19;131189;-38
2023/10/12 00:09:48;;;;;;;157.67;8.37;;;;;;;22.91;57.46;98996.72;7294064;19;129413;-36
2023/10/12 00:12:21;;;;;;;139.93;7.60;;;;;;;23.04;56.65;99020.63;7293085;19;131372;-37
2023/10/12 00:14:47;;;;;;;153.43;8.27;;;;;;;23.04;56.53;99015.41;7294234;19;131538;-38
2023/10/12 00:17:13;;;;;;;118.55;6.53;;;;;;;23.05;56.32;99017.06;7293610;19;130483;-38
2023/10/12 00:19:38;;;;;;;123.07;7.07;;;;;;;23.02;57.19;99012.13;7293002;19;129408;-39
2023/10/12 00:22:09;;;;;;;213.47;10.63;;;;;;;23.05;56.82;99017.06;7292381;19;129065;-38
2023/10/12 00:24:35;;;;;;;157.95;8.60;;;;;;;23.03;56.76;99006.72;7293236;19;131041;-36
2023/10/12 00:27:02;;;;;;;150.18;8.05;;;;;;;23.02;57.09;99007.69;7294282;19;129897;-35
2023/10/12 00:29:28;;;;;;;106.82;6.03;;;;;;;23.05;56.66;99006.56;7291562;19;129321;-39
2023/10/12 00:31:55;;;;;;;198.53;10.80;;;;;;;22.84;54.54;99008.84;7292716;19;130472;-39
2023/10/12 00:34:27;;;;;;;155.13;8.27;;;;;;;22.85;54.00;99005.22;7294091;19;131145;-36
2023/10/12 00:36:53;;;;;;;118.60;6.35;;;;;;;23.07;54.88;99012.47;7294992;19;129730;-38
2023/10/12 00:39:27;;;;;;;82.77;5.17;;;;;;;22.93;54.73;98992.97;7293624;19;129189;-37
2023/10/12 00:41:55;;;;;;;135.23;7.30;;;;;;;23.03;54.94;99005.91;7293122;19;130360;-37
2023/10/12 00:44:26;;;;;;;181.00;9.35;;;;;;;23.05;55.84;99011.81;7289949;19;130949;-37
2023/10/12 00:49:26;;;;;;;116.88;6.68;;;;;;;22.91;55.56;98978.34;7292508;19;129118;-42
2023/10/12 00:52:07;;;;;;;153.30;8.32;;;;;;;23.02;56.59;98981.47;7292895;19;130642;-39
2023/10/12 00:57:05;;;;;;;152.70;7.90;;;;;;;23.03;56.10;98971.81;7294633;19;129959;-39
2023/10/12 00:59:32;;;;;;;148.07;7.82;;;;;;;23.04;56.40;98974.28;7291868;19;130290;-39
2023/10/12 01:02:01;;;;;;;;;;;;;;;23.08;58.30;98974.75;7294596;19;131161;-37
2023/10/12 01:04:30;;;;;;;146.25;7.88;;;;;;;22.94;56.57;98946.59;7290906;19;130316;-36
2023/10/12 01:06:59;;;;;;;128.63;6.93;;;;;;;23.05;56.26;98973.31;7292814;19;129395;-39
2023/10/12 01:09:28;;;;;;;165.65;8.23;;;;;;;23.05;56.53;98967.25;7291179;19;129479;-37
2023/10/12 01:12:00;;;;;;;131.13;6.90;;;;;;;22.93;57.22;98947.56;7293697;19;130184;-38
2023/10/12 01:14:30;;;;;;;128.63;7.05;;;;;;;23.03;57.16;98971.81;7293369;19;133032;-40
2023/10/12 01:17:03;;;;;;;89.22;5.28;;;;;;;23.03;57.29;98974.44;7291700;19;129678;-38
2023/10/12 01:19:33;;;;;;;162.40;8.50;;;;;;;22.92;55.65;98969.53;7291813;19;129183;-32
2023/10/12 01:22:04;;;;;;;172.05;8.52;;;;;;;22.87;53.80;98961.34;7293673;19;131140;-39
2023/10/12 01:24:32;;;;;;;135.68;7.32;;;;;;;22.93;53.23;98958.06;7291594;19;130433;-34
2023/10/12 01:26:58;;;;;;;124.20;7.00;;;;;;;23.04;53.95;98957.72;7293376;19;131340;-40
2023/10/12 01:29:25;;;;;;;123.57;6.80;;;;;;;23.04;54.80;98957.72;7289552;19;130922;-39
2023/10/12 01:32:41;;;;;;;158.10;8.40;;;;;;;23.04;55.16;98957.72;7291842;19;130292;-39
2023/10/12 01:34:44;;;;;;;180.80;9.65;;;;;;;23.06;55.88;98966.25;7290347;19;129682;-38
2023/10/12 01:37:22;;;;;;;143.10;7.53;;;;;;;23.04;55.59;98960.34;7292683;19;130277;-39
2023/10/12 01:39:55;;;;;;;147.65;8.07;;;;;;;23.03;56.18;98956.09;7291736;19;129347;-35
2023/10/12 01:42:21;;;;;;;130.45;7.28;;;;;;;23.03;55.96;98959.53;7292953;19;131407;-38
2023/10/12 01:44:47;;;;;;;126.45;7.22;;;;;;;23.04;56.23;98958.53;7289440;19;130888;-36
2023/10/12 01:47:13;;;;;;;164.53;8.07;;;;;;;23.04;56.57;98962.97;7291291;19;130496;-36
2023/10/12 01:49:39;;;;;;;117.82;6.53;;;;;;;23.04;56.87;98955.91;7290031;19;129251;-36
2023/10/12 01:52:08;;;;;;;130.88;7.25;;;;;;;22.95;57.01;98948.22;7293300;19;130870;-41
2023/10/12 01:54:33;;;;;;;111.50;6.28;;;;;;;23.04;57.01;98960.34;7290967;19;130572;-37
2023/10/12 01:56:59;;;;;;;187.00;9.67;;;;;;;22.93;56.54;98940.53;7290808;19;129109;-37
2023/10/12 01:59:25;;;;;;;138.60;7.35;;;;;;;23.03;56.70;98951.66;7290647;19;129208;-38
2023/10/12 02:02:05;;;;;;;118.32;6.47;;;;;;;23.04;56.60;98952.47;7290994;19;130284;-36
2023/10/12 02:04:31;;;;;;;138.45;7.32;;;;;;;23.04;56.91;98957.72;7290131;19;130778;-35
2023/10/12 02:06:56;;;;;;;118.63;6.53;;;;;;;22.95;55.24;98956.91;7290915;19;129224;-36
2023/10/12 02:09:22;;;;;;;186.80;9.20;;;;;;;22.88;53.84;98955.94;7288489;19;129416;-37
2023/10/12 02:11:53;;;;;;;157.10;8.53;;;;;;;22.93;53.53;98955.44;7291481;19;131329;-38
2023/10/12 02:14:39;;;;;;;70.00;4.25;;;;;;;23.08;54.31;98953.78;7299398;19;130619;-39
2023/10/12 02:17:05;;;;;;;137.65;7.45;;;;;;;23.05;55.13;98954.13;7299128;19;130231;-38
2023/10/12 02:19:32;;;;;;;;;;;;;;;23.10;57.27;98957.06;7296559;19;129173;-38
2023/10/12 02:22:01;;;;;;;206.35;10.65;;;;;;;23.07;55.75;98936.44;7298158;19;129921;-36
2023/10/12 02:24:26;;;;;;;130.85;7.28;;;;;;;23.04;55.63;98942.81;7296355;19;131876;-39
2023/10/12 02:26:55;;;;;;;154.70;8.40;;;;;;;23.04;56.18;98949.84;7296780;19;130452;-38
2023/10/12 02:29:20;;;;;;;152.10;8.13;;;;;;;23.03;56.10;98938.56;7296120;19;130042;-37
2023/10/12 02:34:21;;;;;;;148.00;8.10;;;;;;;23.05;57.01;98946.25;7297641;19;130107;-36
2023/10/12 02:39:40;;;;;;;133.02;7.35;;;;;;;23.05;56.99;98959.38;7297471;19;130160;-39
2023/10/12 02:47:22;;;;;;;169.68;8.82;;;;;;;23.03;57.11;98962.16;7297414;19;129501;-39
2023/10/12 02:50:20;;;;;;;156.68;8.07;;;;;;;23.01;57.59;98958.03;7297177;19;130328;-38
2023/10/12 02:52:43;;;;;;;126.10;6.72;;;;;;;23.05;57.19;98967.25;7297361;19;132934;-36
2023/10/12 02:57:54;;;;;;;166.73;9.05;;;;;;;22.91;53.14;98968.69;7290835;19;129193;-39
2023/10/12 03:00:44;;;;;;;87.25;4.88;;;;;;;23.10;54.46;98967.56;7295299;19;130183;-35
2023/10/12 03:03:25;;;;;;;112.53;6.00;;;;;;;23.05;54.63;98975.09;7297323;19;130476;-38
2023/10/12 03:05:54;;;;;;;148.43;8.55;;;;;;;23.05;55.16;98970.69;7297040;19;130594;-40
2023/10/12 03:08:21;;;;;;;177.90;8.93;;;;;;;23.06;56.03;98963.63;7296546;19;132317;-38
2023/10/12 03:11:12;;;;;;;128.18;6.93;;;;;;;23.08;56.17;98972.16;7294873;19;129263;-39
2023/10/12 03:13:39;;;;;;;133.15;6.93;;;;;;;23.05;56.39;98969.84;7297272;19;130785;-39
2023/10/12 03:16:13;;;;;;;61.75;3.83;;;;;;;23.05;56.26;98970.69;7297003;19;130578;-39
2023/10/12 03:18:40;;;;;;;131.65;6.78;;;;;;;23.06;56.02;98971.47;7297326;19;131238;-38
2023/10/12 03:21:11;;;;;;;164.52;8.65;;;;;;;22.94;56.75;98962.31;7293274;19;129402;-36
2023/10/12 03:23:38;;;;;;;184.23;9.38;;;;;;;23.06;56.24;98976.72;7293442;19;130217;-40
2023/10/12 03:26:11;;;;;;;163.43;8.05;;;;;;;23.03;56.46;98982.31;7297158;19;130903;-37
2023/10/12 03:28:50;;;;;;;136.77;7.35;;;;;;;23.04;56.75;98979.50;7296474;19;131350;-37
2023/10/12 03:31:36;;;;;;;77.03;4.47;;;;;;;23.04;57.08;98973.44;7296001;19;129911;-35
2023/10/12 03:34:05;;;;;;;183.15;9.57;;;;;;;23.04;57.29;98973.44;7296543;19;130729;-35
2023/10/12 03:36:36;;;;;;;99.68;5.78;;;;;;;22.92;56.60;98956.41;7296482;19;130414;-39
2023/10/12 03:47:14;;;;;;;114.53;5.70;;;;;;;22.92;54.66;98975.56;7294699;19;130363;-35
2023/10/12 03:52:29;;;;;;;144.63;8.02;;;;;;;23.05;55.44;98985.59;7296610;19;129634;-38
2023/10/12 03:54:56;;;;;;;136.88;7.68;;;;;;;23.06;55.02;98981.97;7295637;19;131234;-38
2023/10/12 04:02:42;;;;;;;197.65;9.95;;;;;;;23.06;56.40;98981.97;7295386;19;129924;-34
2023/10/12 04:05:21;;;;;;;138.82;7.28;;;;;;;23.06;56.13;98976.72;7292746;19;131522;-37
2023/10/12 04:13:08;;;;;;;153.67;8.37;;;;;;;23.06;56.80;98974.09;7295109;19;129558;-36
2023/10/12 04:16:08;;;;;;;85.95;4.85;;;;;;;22.95;56.03;98956.09;7295696;19;130338;-41
2023/10/12 04:18:28;;;;;;;124.68;6.63;;;;;;;22.97;56.36;98962.00;7292586;19;130287;-39
2023/10/12 04:20:58;;;;;;;182.90;9.68;;;;;;;23.02;56.77;98971.00;7291262;19;129283;-36
2023/10/12 04:26:09;;;;;;;95.57;5.43;;;;;;;23.05;56.81;98982.97;7294761;19;130320;-37
2023/10/12 04:28:35;;;;;;;132.30;6.90;;;;;;;23.05;57.09;98982.97;7294480;19;130442;-39
2023/10/12 04:33:43;;;;;;;146.38;7.53;;;;;;;22.94;53.14;98983.31;7295475;19;132839;-40
2023/10/12 04:44:03;;;;;;;130.65;6.85;;;;;;;23.02;55.82;98970.19;7293067;19;129334;-37
2023/10/12 04:46:38;;;;;;;134.60;6.82;;;;;;;23.07;55.75;98987.06;7294906;19;131081;-36
2023/10/12 04:49:36;;;;;;;119.78;6.30;;;;;;;23.08;55.51;98985.25;7292381;19;133158;-38
2023/10/12 04:57:34;;;;;;;143.43;7.75;;;;;;;22.99;56.41;98970.53;7294139;19;132769;-40
2023/10/12 05:00:24;;;;;;;170.05;9.02;;;;;;;23.07;56.91;98988.88;7291441;19;130284;-38
2023/10/12 05:07:58;;;;;;;168.32;8.93;;;;;;;23.06;57.02;98987.22;7290816;19;129601;-38
2023/10/12 05:13:05;;;;;;;123.13;6.75;;;;;;;23.03;56.77;98990.16;7293177;19;131008;-39
2023/10/12 05:15:39;;;;;;;155.32;8.48;;;;;;;23.07;57.05;98996.75;7292110;19;129320;-40
2023/10/12 05:18:17;;;;;;;201.40;10.60;;;;;;;23.01;56.86;99005.25;7292052;19;131504;-35
2023/10/12 05:20:43;;;;;;;222.55;10.90;;;;;;;22.90;53.59;99008.19;7290447;19;131814;-36
2023/10/12 05:23:10;;;;;;;173.70;9.47;;;;;;;22.92;53.02;99014.09;7292497;19;129284;-35
2023/10/12 05:25:48;;;;;;;152.40;7.95;;;;;;;23.03;53.90;99014.59;7288825;19;129475;-38
2023/10/12 05:28:18;;;;;;;152.75;8.30;;;;;;;23.05;55.35;99003.94;7274489;19;130611;-42
2023/10/12 05:30:55;;;;;;;100.97;5.30;;;;;;;22.95;55.37;98990.16;7289342;19;134902;-33
2023/10/12 05:36:09;;;;;;;202.73;10.65;;;;;;;23.09;56.97;99018.34;7290662;19;129643;-40
2023/10/12 05:38:48;;;;;;;185.65;10.10;;;;;;;23.07;57.20;99020.34;7289742;19;130063;-35
2023/10/12 05:43:59;;;;;;;162.07;8.77;;;;;;;23.09;56.03;99023.59;7285621;19;129932;-35
2023/10/12 05:46:32;;;;;;;133.05;7.22;;;;;;;23.07;56.50;99026.38;7291917;19;129090;-39
2023/10/12 05:48:58;;;;;;;150.23;8.50;;;;;;;23.09;56.54;99040.16;7293244;19;129722;-35
2023/10/12 05:51:23;;;;;;;198.30;9.70;;;;;;;23.09;56.29;99060.31;7299065;19;130383;-38
2023/10/12 05:53:53;;;;;;;131.97;7.10;;;;;;;23.08;56.91;99058.66;7292347;19;129988;-39
2023/10/12 05:56:20;;;;;;;147.27;7.75;;;;;;;22.99;56.48;99063.06;7293705;19;130677;-39
2023/10/12 05:58:45;;;;;;;131.40;7.10;;;;;;;23.08;57.01;99069.16;7293559;19;133026;-38
2023/10/12 06:01:31;;;;;;;222.53;11.63;;;;;;;23.07;57.12;99084.06;7293378;19;130444;-38
2023/10/12 06:03:56;;;;;;;218.25;11.02;;;;;;;23.06;56.48;99086.84;7290686;19;131316;-39
2023/10/12 06:06:22;;;;;;;208.23;10.97;;;;;;;22.92;53.93;99090.13;7294469;19;130854;-39
2023/10/12 06:08:47;;;;;;;128.17;7.37;;;;;;;22.91;54.23;99088.44;7295499;19;130170;-38
2023/10/12 06:11:12;;;;;;;175.17;9.40;;;;;;;22.96;53.68;99109.75;7295037;19;130309;-36
2023/10/12 06:13:41;;;;;;;121.57;6.53;;;;;;;23.05;54.22;99098.34;7293864;19;130939;-37
2023/10/12 06:16:20;;;;;;;169.02;9.52;;;;;;;23.06;54.96;99108.66;7292303;19;131019;-35
2023/10/12 06:18:46;;;;;;;116.50;6.53;;;;;;;23.08;55.32;99116.34;7296773;19;130915;-35
2023/10/12 06:21:17;;;;;;;67.55;4.20;;;;;;;23.08;55.80;99113.72;7304391;19;133494;-36
2023/10/12 06:23:50;;;;;;;71.00;4.47;;;;;;;23.11;56.21;99118.66;7313534;19;129508;-37
2023/10/12 06:26:28;;;;;;;123.53;6.55;;;;;;;23.11;56.86;99131.75;7313594;19;129353;-39
2023/10/12 06:28:58;;;;;;;73.88;4.03;;;;;;;23.11;57.00;99129.97;7311004;19;130179;-38
2023/10/12 06:31:30;;;;;;;47.80;3.47;;;;;;;23.10;55.85;99136.22;7313785;19;129122;-35
2023/10/12 06:33:59;;;;;;;40.65;2.85;;;;;;;23.10;55.57;99132.75;7315725;19;129231;-36
2023/10/12 06:36:37;;;;;;;44.47;3.42;;;;;;;23.01;56.77;99115.34;7313043;19;129307;-37
2023/10/12 06:44:25;;;;;;;100.57;6.22;;;;;;;23.10;56.28;99151.13;7313926;19;129525;-35
2023/10/12 06:46:57;;;;;;;193.60;10.98;;;;;;;23.09;57.27;99166.03;7310659;19;129079;-35
2023/10/12 06:49:23;;;;;;;67.32;4.28;;;;;;;23.11;56.49;99178.97;7306675;19;131178;-39
2023/10/12 06:51:53;;;;;;;;;;;;;;;22.93;54.03;99175.63;7314966;19;130529;-37
2023/10/12 06:54:32;;;;;;;92.97;5.40;;;;;;;22.95;53.28;99178.91;7313339;19;129263;-36
2023/10/12 07:02:24;;;;;;;68.32;4.25;;;;;;;23.09;55.13;99207.13;7309551;19;129212;-36
2023/10/12 07:04:53;;;;;;;70.47;4.55;;;;;;;23.11;55.93;99199.94;7310083;19;129695;-39
2023/10/12 07:07:29;;;;;;;72.32;4.57;;;;;;;23.12;56.38;99193.75;7314271;19;129124;-37
2023/10/12 07:10:12;;;;;;;64.10;4.25;;;;;;;23.12;56.25;99206.84;7312706;19;130088;-39
2023/10/12 07:12:44;;;;;;;54.15;3.80;;;;;;;23.11;56.39;99210.44;7313345;19;130395;-37
2023/10/12 07:15:31;;;;;;;98.38;5.70;;;;;;;23.12;57.54;99212.09;7313412;19;129798;-39
2023/10/12 07:17:57;;;;;;;78.28;4.78;;;;;;;23.09;56.23;99215.00;7312701;19;128990;-37
2023/10/12 07:23:14;;;;;;;66.85;4.53;;;;;;;23.10;56.87;99227.16;7313762;19;130612;-39
2023/10/12 07:25:51;;;;;;;58.58;4.35;;;;;;;23.10;56.32;99235.03;7312480;19;128964;-36
2023/10/12 07:28:41;;;;;;;74.38;5.18;;;;;;;23.10;57.26;99235.03;7313340;19;130341;-39
2023/10/12 07:39:20;;;;;;;115.53;6.75;;;;;;;22.96;53.72;99269.69;7305017;19;129242;-39
2023/10/12 07:41:56;;;;;;;87.07;5.18;;;;;;;23.07;54.32;99274.69;7310775;19;131106;-39
2023/10/12 07:44:38;;;;;;;120.82;6.97;;;;;;;23.08;55.09;99279.75;7308714;19;130922;-39
2023/10/12 07:47:13;;;;;;;55.83;4.10;;;;;;;22.97;55.85;99250.38;7311959;19;129140;-38
2023/10/12 07:49:40;;;;;;;34.60;3.42;;;;;;;23.09;55.97;99276.16;7311518;19;129150;-38
2023/10/12 07:52:21;;;;;;;51.40;3.70;;;;;;;23.10;56.06;99284.84;7312052;19;130300;-39
2023/10/12 07:54:48;;;;;;;47.17;3.60;;;;;;;23.09;56.46;99285.81;7310345;19;130621;-38
2023/10/12 07:57:17;;;;;;;115.13;6.45;;;;;;;23.09;56.80;99288.44;7312369;19;132520;-38
2023/10/12 07:59:59;;;;;;;84.78;5.03;;;;;;;23.08;56.20;99289.41;7309838;19;130075;-38
2023/10/12 08:21:10;;;;;;;65.90;4.50;;;;;;;23.08;56.91;99268.44;7308589;19;129208;-37
2023/10/12 08:23:37;;;;;;;109.63;6.18;;;;;;;22.97;55.00;99264.28;7306689;19;130225;-37
2023/10/12 08:26:03;;;;;;;63.90;4.13;;;;;;;22.90;53.63;99244.94;7308304;19;131280;-36
2023/10/12 08:28:37;;;;;;;32.33;3.07;;;;;;;22.98;53.71;99236.28;7308245;19;129348;-39
2023/10/12 08:31:14;;;;;;;40.80;3.28;;;;;;;23.09;54.72;99242.06;7303746;19;130665;-39
2023/10/12 08:33:49;;;;;;;;;;;;;;;23.13;56.76;99245.19;7311701;19;130199;-39
2023/10/12 08:38:40;;;;;;;43.13;3.77;;;;;;;23.09;55.46;99234.19;7309980;19;129533;-38
2023/10/12 08:44:05;;;;;;;95.18;5.97;;;;;;;23.11;56.61;99241.91;7304020;19;129105;-39
2023/10/12 08:52:18;;;;;;;44.65;3.72;;;;;;;23.10;57.12;99261.25;7305532;19;128879;-40
2023/10/12 08:54:51;;;;;;;48.38;3.95;;;;;;;23.12;57.01;99280.28;7309392;19;130754;-38
2023/10/12 08:57:43;;;;;;;106.50;6.57;;;;;;;23.13;57.68;99285.34;7309404;19;130443;-37
2023/10/12 09:03:32;;;;;;;59.40;4.20;;;;;;;23.13;57.03;99292.41;7308400;19;130595;-40
2023/10/12 09:05:54;;;;;;;45.28;3.42;;;;;;;23.13;57.34;99293.22;7307039;19;130180;-39
2023/10/12 09:10:49;;;;;;;50.63;3.97;;;;;;;22.98;55.03;99293.97;7306346;19;129790;-37
2023/10/12 09:13:18;;;;;;;99.43;6.67;;;;;;;22.95;54.35;99296.91;7309496;19;129050;-39
2023/10/12 09:15:48;;;;;;;37.88;3.25;;;;;;;23.02;53.39;99300.53;7311850;19;129040;-38
2023/10/12 09:18:17;;;;;;;127.93;7.82;;;;;;;23.12;54.56;99303.88;7300336;19;133119;-38
2023/10/12 09:31:14;;;;;;;93.15;5.85;;;;;;;23.11;56.13;99315.31;7298357;19;129291;-37
2023/10/12 09:34:12;;;;;;;64.47;4.53;;;;;;;23.13;56.11;99310.75;7307367;19;129286;-37
2023/10/12 09:36:43;;;;;;;86.20;5.53;;;;;;;23.13;56.29;99308.13;7301982;19;130263;-39
2023/10/12 09:39:24;;;;;;;74.20;4.70;;;;;;;23.12;56.87;99299.44;7307366;19;130331;-38
2023/10/12 09:41:58;;;;;;;95.63;5.57;;;;;;;22.99;56.79;99280.69;7309442;19;129578;-39
2023/10/12 09:44:35;;;;;;;106.00;6.68;;;;;;;23.16;56.98;99305.19;7308855;19;129260;-38
2023/10/12 09:47:08;;;;;;;53.13;4.27;;;;;;;23.15;57.51;99306.19;7308966;19;130248;-39
2023/10/12 09:49:37;;;;;;;22.25;2.70;;;;;;;23.14;57.54;99305.34;7309290;19;130214;-40
2023/10/12 09:52:13;;;;;;;46.63;3.65;;;;;;;23.15;57.60;99300.94;7310129;19;130398;-40
2023/10/12 09:55:06;;;;;;;47.17;3.75;;;;;;;23.14;57.79;99300.09;7309909;19;129478;-39
2023/10/12 09:57:34;;;;;;;61.95;4.57;;;;;;;22.93;54.64;99304.09;7309623;19;130162;-37
2023/10/12 10:00:00;;;;;;;89.53;5.68;;;;;;;22.93;53.58;99298.84;7308982;19;130302;-40
2023/10/12 10:02:34;;;;;;;;;;;;;;;23.02;53.30;99311.03;7311134;19;131089;-39
2023/10/12 10:07:53;;;;;;;50.22;4.22;;;;;;;22.97;55.89;99281.84;7309764;19;129026;-38
2023/10/12 10:10:34;;;;;;;63.03;4.72;;;;;;;23.12;55.89;99306.50;7307242;19;131067;-39
2023/10/12 10:13:14;;;;;;;34.83;3.17;;;;;;;23.12;57.54;99309.13;7310162;19;130437;-40
2023/10/12 10:15:55;;;;;;;53.53;3.78;;;;;;;23.12;57.08;99307.31;7308369;19;128859;-40
2023/10/12 10:18:28;;;;;;;72.72;4.97;;;;;;;23.13;57.06;99318.63;7307996;19;130933;-39
2023/10/12 10:20:58;;;;;;;87.63;5.13;;;;;;;23.12;57.02;99311.75;7306337;19;130988;-40
2023/10/12 10:23:24;;;;;;;65.25;4.47;;;;;;;23.07;57.04;99293.03;7309042;19;129584;-40
2023/10/12 10:26:13;;;;;;;33.08;3.05;;;;;;;22.99;57.62;99285.13;7307740;19;129073;-39
2023/10/12 10:28:39;;;;;;;47.25;3.63;;;;;;;23.13;56.90;99313.38;7308467;19;130427;-39
2023/10/12 10:31:07;;;;;;;44.00;3.50;;;;;;;23.13;57.37;99300.25;7305715;19;130283;-40
2023/10/12 10:33:37;;;;;;;74.00;4.75;;;;;;;23.13;58.01;99305.50;7311424;19;128992;-38
2023/10/12 10:36:10;;;;;;;69.78;4.85;;;;;;;23.14;58.15;99300.09;7310961;19;129337;-38
2023/10/12 10:38:42;;;;;;;78.57;5.47;;;;;;;23.15;57.27;99293.06;7311487;19;131014;-39
2023/10/12 10:41:08;;;;;;;51.30;3.47;;;;;;;23.14;57.33;99294.84;7312114;19;131132;-40
2023/10/12 10:43:37;;;;;;;44.57;3.47;;;;;;;22.98;54.14;99288.72;7313505;19;129024;-39
2023/10/12 10:46:13;;;;;;;107.25;6.00;;;;;;;23.01;54.31;99301.50;7312232;19;129424;-39
2023/10/12 10:48:49;;;;;;;78.20;4.65;;;;;;;23.04;53.12;99306.44;7316447;19;133020;-38
2023/10/12 10:51:40;;;;;;;48.22;3.60;;;;;;;23.12;54.84;99307.31;7310415;19;130284;-36
2023/10/12 10:54:12;;;;;;;52.78;3.63;;;;;;;23.12;55.14;99307.31;7316706;19;129233;-39
2023/10/12 10:56:47;;;;;;;56.42;4.13;;;;;;;23.12;57.01;99320.41;7314544;19;129092;-39
2023/10/12 10:59:13;;;;;;;56.92;4.32;;;;;;;23.13;56.51;99323.88;7312112;19;131194;-38
2023/10/12 11:01:48;;;;;;;54.73;3.73;;;;;;;23.01;56.72;99297.09;7313739;19;130391;-40
2023/10/12 11:04:41;;;;;;;73.97;4.57;;;;;;;23.14;57.07;99315.84;7314860;19;128972;-37
2023/10/12 11:07:15;;;;;;;61.17;4.13;;;;;;;23.14;57.34;99322.88;7313715;19;128977;-39
2023/10/12 11:10:31;;;;;;;100.10;5.82;;;;;;;23.13;56.86;99323.88;7313184;19;129830;-40
2023/10/12 11:12:36;;;;;;;111.60;6.75;;;;;;;23.16;56.84;99328.78;7312018;19;130367;-39
2023/10/12 11:15:14;;;;;;;61.72;4.30;;;;;;;23.14;56.60;99320.25;7314987;19;129350;-37
2023/10/12 11:17:55;;;;;;;79.53;5.22;;;;;;;23.15;57.45;99332.41;7314653;19;129361;-36
2023/10/12 11:20:27;;;;;;;88.45;5.75;;;;;;;23.13;57.04;99329.94;7311822;19;130396;-39
2023/10/12 11:22:53;;;;;;;31.38;3.30;;;;;;;23.10;57.52;99318.94;7312541;19;131055;-39
2023/10/12 11:25:20;;;;;;;;;;;;;;;23.19;59.26;99320.59;7310639;19;129135;-40
2023/10/12 11:27:45;;;;;;;79.07;4.47;;;;;;;23.16;57.09;99329.63;7313872;19;128982;-38
2023/10/12 11:30:26;;;;;;;41.23;3.23;;;;;;;23.14;56.89;99325.50;7312808;19;129633;-38
2023/10/12 11:32:58;;;;;;;46.08;3.83;;;;;;;22.95;54.05;99318.69;7313018;19;130413;-37
2023/10/12 11:35:33;;;;;;;247.70;13.80;;;;;;;22.95;53.19;99315.25;7303648;19;131156;-38
2023/10/12 11:37:59;;;;;;;57.45;3.58;;;;;;;22.99;54.00;99300.88;7309318;19;129447;-38
2023/10/12 11:40:30;;;;;;;145.77;8.07;;;;;;;23.12;55.88;99322.22;7306025;19;130256;-36
2023/10/12 11:42:56;;;;;;;46.10;3.20;;;;;;;23.13;55.92;99318.63;7310186;19;132536;-38
2023/10/12 11:45:21;;;;;;;75.03;5.10;;;;;;;23.15;55.58;99329.78;7306155;19;129404;-40
2023/10/12 11:47:49;;;;;;;54.00;3.60;;;;;;;23.14;56.26;99325.50;7311955;19;129375;-39
2023/10/12 11:50:15;;;;;;;81.10;4.70;;;;;;;23.07;56.26;99309.56;7311287;19;130183;-39
2023/10/12 11:52:40;;;;;;;43.77;3.73;;;;;;;23.13;56.82;99316.00;7312902;19;130350;-36
2023/10/12 11:55:07;;;;;;;35.58;2.80;;;;;;;23.16;56.52;99323.56;7313797;19;129546;-39
2023/10/12 11:57:35;;;;;;;196.85;11.05;;;;;;;23.15;56.76;99314.06;7308337;19;129108;-35
2023/10/12 12:00:20;;;;;;;88.35;5.22;;;;;;;23.06;57.25;99302.69;7306136;19;130207;-39
2023/10/12 12:02:46;;;;;;;95.85;5.40;;;;;;;23.10;56.57;99309.28;7310995;19;131227;-37
2023/10/12 12:05:11;;;;;;;79.47;5.20;;;;;;;23.09;57.27;99312.03;7311561;19;129283;-39
2023/10/12 12:07:37;;;;;;;60.40;4.20;;;;;;;23.13;56.85;99318.63;7311020;19;129010;-39
2023/10/12 12:10:07;;;;;;;65.35;4.35;;;;;;;23.12;57.33;99323.03;7308676;19;131067;-38
2023/10/12 12:12:38;;;;;;;122.88;7.18;;;;;;;23.13;57.52;99323.88;7311125;19;130439;-38
2023/10/12 12:15:04;;;;;;;50.22;3.72;;;;;;;23.14;57.50;99322.88;7312866;19;129427;-38
2023/10/12 12:17:29;;;;;;;118.97;7.45;;;;;;;23.01;55.86;99322.47;7311149;19;130108;-39
2023/10/12 12:19:55;;;;;;;31.83;2.70;;;;;;;22.96;54.04;99330.81;7310256;19;130147;-38
2023/10/12 12:22:23;;;;;;;88.60;4.90;;;;;;;23.03;53.47;99331.84;7310546;19;130517;-37
2023/10/12 12:24:48;;;;;;;72.47;4.70;;;;;;;23.11;54.82;99325.81;7305177;19;129012;-38
2023/10/12 12:29:58;;;;;;;113.07;6.60;;;;;;;23.11;55.61;99321.41;7303786;19;129269;-37
2023/10/12 12:32:26;;;;;;;69.80;4.63;;;;;;;23.16;56.13;99328.78;7308739;19;130265;-38
2023/10/12 12:34:54;;;;;;;117.57;6.35;;;;;;;23.13;55.75;99323.88;7307660;19;128964;-36
2023/10/12 12:37:19;;;;;;;52.65;3.72;;;;;;;23.14;56.01;99333.38;7311219;19;128964;-38
2023/10/12 12:39:55;;;;;;;20.17;2.07;;;;;;;23.19;56.26;99339.78;7305578;19;131589;-38
2023/10/12 12:42:20;;;;;;;36.95;3.17;;;;;;;23.19;56.90;99339.78;7304087;19;130439;-38
2023/10/12 12:44:45;;;;;;;123.87;7.90;;;;;;;23.16;56.88;99339.28;7306967;19;129170;-37
2023/10/12 12:47:11;;;;;;;66.60;4.37;;;;;;;23.20;57.06;99340.63;7309822;19;128993;-36
2023/10/12 12:49:37;;;;;;;106.03;6.80;;;;;;;23.20;57.20;99338.00;7308900;19;129083;-38
2023/10/12 12:52:03;;;;;;;30.47;2.90;;;;;;;23.11;57.46;99315.31;7311954;19;130307;-38
2023/10/12 12:54:30;;;;;;;125.47;7.13;;;;;;;23.19;57.48;99338.97;7310095;19;129460;-38
2023/10/12 12:56:55;;;;;;;67.13;5.05;;;;;;;23.16;56.01;99340.13;7309708;19;130010;-38
2023/10/12 12:59:21;;;;;;;78.07;4.80;;;;;;;23.08;54.82;99336.63;7308320;19;130369;-39
2023/10/12 13:01:49;;;;;;;42.90;3.58;;;;;;;23.01;54.11;99328.56;7311577;19;130737;-39
2023/10/12 13:04:16;;;;;;;93.93;5.47;;;;;;;23.23;54.53;99340.31;7308608;19;128799;-38
2023/10/12 13:06:42;;;;;;;57.92;4.30;;;;;;;23.20;55.23;99341.44;7311317;19;131290;-37
2023/10/12 13:09:26;;;;;;;25.13;2.67;;;;;;;23.19;55.23;99339.78;7309666;19;129749;-39
2023/10/12 13:11:52;;;;;;;47.97;3.65;;;;;;;23.23;55.86;99350.81;7308096;19;130991;-38
2023/10/12 13:14:18;;;;;;;97.57;6.03;;;;;;;23.21;56.27;99348.34;7309853;19;129656;-38
2023/10/12 13:16:43;;;;;;;86.77;5.17;;;;;;;23.22;55.96;99349.16;7308158;19;128999;-39
2023/10/12 13:19:11;;;;;;;98.47;6.23;;;;;;;23.24;56.34;99347.19;7307303;19;130121;-37
2023/10/12 13:21:41;;;;;;;67.38;4.72;;;;;;;23.18;56.24;99339.97;7309406;19;130629;-37
2023/10/12 13:24:08;;;;;;;46.70;4.00;;;;;;;23.21;56.94;99353.59;7310856;19;130715;-37
2023/10/12 13:26:33;;;;;;;134.57;7.78;;;;;;;23.21;57.24;99342.25;7305824;19;129935;-37
2023/10/12 13:29:01;;;;;;;56.17;4.10;;;;;;;23.21;56.99;99342.25;7309300;19;129985;-39
2023/10/12 13:31:27;;;;;;;58.33;4.28;;;;;;;23.22;57.08;99341.31;7309673;19;131631;-37
2023/10/12 13:33:52;;;;;;;68.07;5.03;;;;;;;23.19;57.52;99338.97;7306506;19;130048;-36
2023/10/12 13:36:18;;;;;;;90.03;5.30;;;;;;;23.21;57.04;99337.84;7308276;19;129147;-38
2023/10/12 13:38:43;;;;;;;57.87;4.10;;;;;;;23.08;57.74;99320.88;7309065;19;129534;-38
2023/10/12 13:41:11;;;;;;;54.77;4.07;;;;;;;23.05;54.43;99334.31;7307314;19;131100;-37
2023/10/12 13:43:37;;;;;;;79.45;5.10;;;;;;;23.12;53.84;99337.97;7309495;19;129754;-37
2023/10/12 13:46:12;;;;;;;100.18;6.15;;;;;;;23.26;54.35;99334.75;7307670;19;130000;-38
2023/10/12 13:48:38;;;;;;;70.40;4.50;;;;;;;23.23;55.05;99333.28;7308941;19;130106;-38
2023/10/12 13:51:04;;;;;;;38.70;3.20;;;;;;;23.23;55.87;99340.31;7306891;19;130278;-38
2023/10/12 13:53:36;;;;;;;50.42;3.92;;;;;;;23.22;56.26;99328.19;7309332;19;129028;-37
2023/10/12 13:56:08;;;;;;;153.15;8.95;;;;;;;23.16;56.45;99324.38;7303886;19;129310;-38
2023/10/12 13:58:38;;;;;;;118.13;7.18;;;;;;;23.17;57.47;99322.59;7306790;19;130193;-37